sensor_id;sensor_type;location;lat;lon;timestamp;P1;P2;P0
26185;PMS7003;20067;48.764;9.176;2022-11-14T00:00:05;24.25;21.50;13.50
26185;PMS7003;20067;48.764;9.176;2022-11-14T00:02:32;33.50;30.25;18.00
26185;PMS7003;20067;48.764;9.176;2022-11-14T00:04:58;24.00;24.00;15.75
26185;PMS7003;20067;48.764;9.176;2022-11-14T00:07:24;34.00;26.25;17.75
26185;PMS7003;20067;48.764;9.176;2022-11-14T00:09:53;28.00;25.00;16.00
26185;PMS7003;20067;48.764;9.176;2022-11-14T00:12:18;26.75;24.50;14.00
26185;PMS7003;20067;48.764;9.176;2022-11-14T00:14:44;29.50;27.25;17.00
26185;PMS7003;20067;48.764;9.176;2022-11-14T00:17:10;29.50;24.50;15.00
26185;PMS7003;20067;48.764;9.176;2022-11-14T00:19:35;26.75;24.75;17.50
26185;PMS7003;20067;48.764;9.176;2022-11-14T00:22:01;32.75;28.00;18.00
26185;PMS7003;20067;48.764;9.176;2022-11-14T00:24:26;28.00;25.00;16.50
26185;PMS7003;20067;48.764;9.176;2022-11-14T00:26:52;36.00;30.25;19.50
26185;PMS7003;20067;48.764;9.176;2022-11-14T00:29:17;25.25;24.25;15.00
26185;PMS7003;20067;48.764;9.176;2022-11-14T00:31:43;31.00;27.25;17.50
26185;PMS7003;20067;48.764;9.176;2022-11-14T00:34:08;34.75;27.75;18.25
26185;PMS7003;20067;48.764;9.176;2022-11-14T00:36:35;28.00;27.00;16.50
26185;PMS7003;20067;48.764;9.176;2022-11-14T00:39:01;29.25;28.25;18.00
26185;PMS7003;20067;48.764;9.176;2022-11-14T00:41:27;30.50;25.25;17.50
26185;PMS7003;20067;48.764;9.176;2022-11-14T00:43:52;28.25;24.00;14.00
26185;PMS7003;20067;48.764;9.176;2022-11-14T00:46:18;29.75;25.00;14.00
26185;PMS7003;20067;48.764;9.176;2022-11-14T00:48:44;25.00;24.00;15.50
26185;PMS7003;20067;48.764;9.176;2022-11-14T00:51:10;33.50;25.50;14.00
26185;PMS7003;20067;48.764;9.176;2022-11-14T00:53:35;27.00;23.50;14.50
26185;PMS7003;20067;48.764;9.176;2022-11-14T00:56:01;24.00;19.75;11.75
26185;PMS7003;20067;48.764;9.176;2022-11-14T00:58:27;36.50;27.25;16.00
26185;PMS7003;20067;48.764;9.176;2022-11-14T01:00:53;26.75;19.75;11.00
26185;PMS7003;20067;48.764;9.176;2022-11-14T01:03:18;27.75;24.00;13.00
26185;PMS7003;20067;48.764;9.176;2022-11-14T01:05:45;31.00;24.00;15.00
26185;PMS7003;20067;48.764;9.176;2022-11-14T01:08:13;21.00;21.00;12.00
26185;PMS7003;20067;48.764;9.176;2022-11-14T01:10:41;24.00;21.50;12.00
26185;PMS7003;20067;48.764;9.176;2022-11-14T01:13:08;25.75;24.00;14.50
26185;PMS7003;20067;48.764;9.176;2022-11-14T01:15:41;34.00;28.50;18.00
26185;PMS7003;20067;48.764;9.176;2022-11-14T01:18:13;22.00;20.25;13.00
26185;PMS7003;20067;48.764;9.176;2022-11-14T01:20:42;21.25;21.25;14.00
26185;PMS7003;20067;48.764;9.176;2022-11-14T01:23:09;21.00;19.00;12.00
26185;PMS7003;20067;48.764;9.176;2022-11-14T01:25:37;27.00;26.25;16.00
26185;PMS7003;20067;48.764;9.176;2022-11-14T01:28:06;35.00;29.75;18.25
26185;PMS7003;20067;48.764;9.176;2022-11-14T01:30:33;23.00;23.00;13.50
26185;PMS7003;20067;48.764;9.176;2022-11-14T01:32:59;29.75;27.25;16.00
26185;PMS7003;20067;48.764;9.176;2022-11-14T01:35:25;29.00;23.75;16.00
26185;PMS7003;20067;48.764;9.176;2022-11-14T01:37:51;28.25;27.25;20.00
26185;PMS7003;20067;48.764;9.176;2022-11-14T01:40:16;34.00;27.50;19.00
26185;PMS7003;20067;48.764;9.176;2022-11-14T01:43:05;24.75;24.75;17.00
26185;PMS7003;20067;48.764;9.176;2022-11-14T01:45:59;26.00;25.75;16.00
26185;PMS7003;20067;48.764;9.176;2022-11-14T01:51:12;24.75;22.50;13.00
26185;PMS7003;20067;48.764;9.176;2022-11-14T01:53:40;32.75;26.75;18.00
26185;PMS7003;20067;48.764;9.176;2022-11-14T01:56:07;32.75;30.75;20.00
26185;PMS7003;20067;48.764;9.176;2022-11-14T01:58:37;28.00;26.75;18.00
26185;PMS7003;20067;48.764;9.176;2022-11-14T02:01:05;31.50;29.50;18.50
26185;PMS7003;20067;48.764;9.176;2022-11-14T02:03:31;37.00;33.25;23.75
26185;PMS7003;20067;48.764;9.176;2022-11-14T02:06:02;31.25;27.75;19.50
26185;PMS7003;20067;48.764;9.176;2022-11-14T02:08:30;40.25;36.25;26.75
26185;PMS7003;20067;48.764;9.176;2022-11-14T02:10:57;41.50;37.00;26.25
26185;PMS7003;20067;48.764;9.176;2022-11-14T02:13:23;40.25;39.25;29.00
26185;PMS7003;20067;48.764;9.176;2022-11-14T02:15:49;46.75;40.75;32.50
26185;PMS7003;20067;48.764;9.176;2022-11-14T02:18:15;47.33;44.67;33.67
26185;PMS7003;20067;48.764;9.176;2022-11-14T02:20:40;54.33;46.67;33.00
26185;PMS7003;20067;48.764;9.176;2022-11-14T02:23:09;49.67;44.67;33.67
26185;PMS7003;20067;48.764;9.176;2022-11-14T02:25:35;56.67;51.33;37.00
26185;PMS7003;20067;48.764;9.176;2022-11-14T02:28:02;44.25;43.25;29.75
26185;PMS7003;20067;48.764;9.176;2022-11-14T02:30:30;46.33;45.00;36.00
26185;PMS7003;20067;48.764;9.176;2022-11-14T02:32:55;47.67;46.67;35.00
26185;PMS7003;20067;48.764;9.176;2022-11-14T02:35:21;48.33;47.67;37.00
26185;PMS7003;20067;48.764;9.176;2022-11-14T02:37:46;54.67;52.33;37.00
26185;PMS7003;20067;48.764;9.176;2022-11-14T02:40:12;46.00;43.00;32.00
26185;PMS7003;20067;48.764;9.176;2022-11-14T02:42:37;51.00;49.33;37.00
26185;PMS7003;20067;48.764;9.176;2022-11-14T02:45:03;46.00;39.50;29.00
26185;PMS7003;20067;48.764;9.176;2022-11-14T02:47:29;50.00;47.00;37.67
26185;PMS7003;20067;48.764;9.176;2022-11-14T02:49:54;55.67;49.00;36.33
26185;PMS7003;20067;48.764;9.176;2022-11-14T02:52:20;53.00;47.33;39.33
26185;PMS7003;20067;48.764;9.176;2022-11-14T02:54:46;54.33;49.00;37.00
26185;PMS7003;20067;48.764;9.176;2022-11-14T02:57:11;56.33;51.67;41.00
26185;PMS7003;20067;48.764;9.176;2022-11-14T02:59:37;51.00;47.00;37.00
26185;PMS7003;20067;48.764;9.176;2022-11-14T03:02:03;56.33;49.67;37.00
26185;PMS7003;20067;48.764;9.176;2022-11-14T03:04:28;49.67;49.00;37.33
26185;PMS7003;20067;48.764;9.176;2022-11-14T03:06:54;59.00;47.67;36.00
26185;PMS7003;20067;48.764;9.176;2022-11-14T03:09:19;48.33;43.00;30.33
26185;PMS7003;20067;48.764;9.176;2022-11-14T03:11:46;44.25;42.25;29.00
26185;PMS7003;20067;48.764;9.176;2022-11-14T03:14:11;45.00;37.75;27.50
26185;PMS7003;20067;48.764;9.176;2022-11-14T03:16:37;43.50;34.00;25.75
26185;PMS7003;20067;48.764;9.176;2022-11-14T03:19:03;36.25;32.75;21.75
26185;PMS7003;20067;48.764;9.176;2022-11-14T03:21:28;35.50;34.00;22.75
26185;PMS7003;20067;48.764;9.176;2022-11-14T03:23:54;34.00;30.00;21.00
26185;PMS7003;20067;48.764;9.176;2022-11-14T03:26:19;32.75;29.00;19.50
26185;PMS7003;20067;48.764;9.176;2022-11-14T03:28:45;30.25;30.25;20.00
26185;PMS7003;20067;48.764;9.176;2022-11-14T03:31:12;30.75;25.00;18.00
26185;PMS7003;20067;48.764;9.176;2022-11-14T03:33:38;35.25;28.00;21.75
26185;PMS7003;20067;48.764;9.176;2022-11-14T03:36:04;24.50;24.50;18.00
26185;PMS7003;20067;48.764;9.176;2022-11-14T03:38:31;31.50;28.50;19.00
26185;PMS7003;20067;48.764;9.176;2022-11-14T03:40:57;30.75;30.25;19.75
26185;PMS7003;20067;48.764;9.176;2022-11-14T03:43:23;30.50;27.00;18.50
26185;PMS7003;20067;48.764;9.176;2022-11-14T03:45:49;35.75;31.50;21.00
26185;PMS7003;20067;48.764;9.176;2022-11-14T03:48:15;35.75;34.00;20.50
26185;PMS7003;20067;48.764;9.176;2022-11-14T03:50:41;35.25;34.00;20.50
26185;PMS7003;20067;48.764;9.176;2022-11-14T03:53:07;29.25;29.25;20.50
26185;PMS7003;20067;48.764;9.176;2022-11-14T03:55:33;28.25;28.25;20.00
26185;PMS7003;20067;48.764;9.176;2022-11-14T03:57:59;31.00;29.50;21.50
26185;PMS7003;20067;48.764;9.176;2022-11-14T04:00:24;35.50;33.00;23.50
26185;PMS7003;20067;48.764;9.176;2022-11-14T04:02:53;31.50;31.00;22.25
26185;PMS7003;20067;48.764;9.176;2022-11-14T04:05:19;33.50;29.00;22.00
26185;PMS7003;20067;48.764;9.176;2022-11-14T04:07:46;38.75;33.00;23.50
26185;PMS7003;20067;48.764;9.176;2022-11-14T04:10:11;34.50;32.00;22.00
26185;PMS7003;20067;48.764;9.176;2022-11-14T04:12:37;33.00;31.00;22.00
26185;PMS7003;20067;48.764;9.176;2022-11-14T04:15:03;32.00;28.50;21.50
26185;PMS7003;20067;48.764;9.176;2022-11-14T04:17:29;29.00;29.00;23.50
26185;PMS7003;20067;48.764;9.176;2022-11-14T04:19:54;32.50;28.50;19.50
26185;PMS7003;20067;48.764;9.176;2022-11-14T04:22:20;28.75;26.25;18.50
26185;PMS7003;20067;48.764;9.176;2022-11-14T04:24:45;27.25;26.00;19.00
26185;PMS7003;20067;48.764;9.176;2022-11-14T04:27:11;28.50;26.00;20.00
26185;PMS7003;20067;48.764;9.176;2022-11-14T04:29:36;34.50;27.00;18.00
26185;PMS7003;20067;48.764;9.176;2022-11-14T04:32:02;33.50;29.00;21.75
26185;PMS7003;20067;48.764;9.176;2022-11-14T04:34:28;40.50;33.00;23.00
26185;PMS7003;20067;48.764;9.176;2022-11-14T04:36:53;25.75;25.75;20.00
26185;PMS7003;20067;48.764;9.176;2022-11-14T04:39:19;33.75;28.50;19.00
26185;PMS7003;20067;48.764;9.176;2022-11-14T04:41:44;35.00;31.75;20.00
26185;PMS7003;20067;48.764;9.176;2022-11-14T04:44:10;26.25;25.75;17.00
26185;PMS7003;20067;48.764;9.176;2022-11-14T04:46:36;28.00;26.00;18.50
26185;PMS7003;20067;48.764;9.176;2022-11-14T04:49:02;30.75;27.50;17.00
26185;PMS7003;20067;48.764;9.176;2022-11-14T04:51:27;31.75;30.00;18.00
26185;PMS7003;20067;48.764;9.176;2022-11-14T04:53:53;29.50;26.75;18.25
26185;PMS7003;20067;48.764;9.176;2022-11-14T04:56:18;40.00;34.25;24.00
26185;PMS7003;20067;48.764;9.176;2022-11-14T04:58:47;28.00;28.00;20.00
26185;PMS7003;20067;48.764;9.176;2022-11-14T05:01:13;31.50;30.50;20.00
26185;PMS7003;20067;48.764;9.176;2022-11-14T05:03:39;26.50;26.50;17.25
26185;PMS7003;20067;48.764;9.176;2022-11-14T05:06:05;28.25;28.00;17.25
26185;PMS7003;20067;48.764;9.176;2022-11-14T05:08:31;33.25;32.25;19.50
26185;PMS7003;20067;48.764;9.176;2022-11-14T05:10:57;35.00;33.75;19.50
26185;PMS7003;20067;48.764;9.176;2022-11-14T05:13:22;35.00;30.25;18.00
26185;PMS7003;20067;48.764;9.176;2022-11-14T05:15:48;32.50;31.00;20.00
26185;PMS7003;20067;48.764;9.176;2022-11-14T05:18:13;29.00;29.00;22.00
26185;PMS7003;20067;48.764;9.176;2022-11-14T05:20:39;33.00;27.25;18.50
26185;PMS7003;20067;48.764;9.176;2022-11-14T05:23:04;30.50;30.00;18.00
26185;PMS7003;20067;48.764;9.176;2022-11-14T05:25:30;33.50;28.25;19.50
26185;PMS7003;20067;48.764;9.176;2022-11-14T05:27:56;33.75;26.50;18.50
26185;PMS7003;20067;48.764;9.176;2022-11-14T05:30:21;25.50;25.50;16.50
26185;PMS7003;20067;48.764;9.176;2022-11-14T05:32:47;30.50;29.00;19.50
26185;PMS7003;20067;48.764;9.176;2022-11-14T05:35:15;28.75;27.00;19.75
26185;PMS7003;20067;48.764;9.176;2022-11-14T05:37:40;24.50;24.50;17.50
26185;PMS7003;20067;48.764;9.176;2022-11-14T05:40:06;30.00;26.25;17.50
26185;PMS7003;20067;48.764;9.176;2022-11-14T05:42:32;29.25;27.00;18.50
26185;PMS7003;20067;48.764;9.176;2022-11-14T05:44:57;35.25;29.75;19.00
26185;PMS7003;20067;48.764;9.176;2022-11-14T05:47:23;25.50;24.00;16.00
26185;PMS7003;20067;48.764;9.176;2022-11-14T05:49:48;27.75;25.50;18.00
26185;PMS7003;20067;48.764;9.176;2022-11-14T05:52:14;23.00;23.00;16.00
26185;PMS7003;20067;48.764;9.176;2022-11-14T05:54:39;24.00;21.50;14.00
26185;PMS7003;20067;48.764;9.176;2022-11-14T05:57:05;25.00;23.50;15.00
26185;PMS7003;20067;48.764;9.176;2022-11-14T05:59:31;27.00;23.00;14.50
26185;PMS7003;20067;48.764;9.176;2022-11-14T06:01:56;18.75;17.75;11.00
26185;PMS7003;20067;48.764;9.176;2022-11-14T06:04:22;79.67;67.33;46.67
26185;PMS7003;20067;48.764;9.176;2022-11-14T06:06:48;73.00;61.67;44.67
26185;PMS7003;20067;48.764;9.176;2022-11-14T06:09:13;25.75;24.75;16.00
26185;PMS7003;20067;48.764;9.176;2022-11-14T06:11:39;26.25;24.50;16.00
26185;PMS7003;20067;48.764;9.176;2022-11-14T06:14:04;21.50;18.00;12.00
26185;PMS7003;20067;48.764;9.176;2022-11-14T06:16:30;22.00;21.00;14.00
26185;PMS7003;20067;48.764;9.176;2022-11-14T06:18:56;23.00;23.00;15.00
26185;PMS7003;20067;48.764;9.176;2022-11-14T06:21:22;19.00;18.50;10.00
26185;PMS7003;20067;48.764;9.176;2022-11-14T06:23:49;21.00;18.50;10.50
26185;PMS7003;20067;48.764;9.176;2022-11-14T06:28:51;25.00;19.00;14.00
26185;PMS7003;20067;48.764;9.176;2022-11-14T06:31:18;30.00;24.00;15.00
26185;PMS7003;20067;48.764;9.176;2022-11-14T06:33:44;29.00;25.75;15.75
26185;PMS7003;20067;48.764;9.176;2022-11-14T06:36:10;27.25;23.00;13.00
26185;PMS7003;20067;48.764;9.176;2022-11-14T06:38:37;30.25;24.50;15.25
26185;PMS7003;20067;48.764;9.176;2022-11-14T06:41:05;15.50;15.25;10.50
26185;PMS7003;20067;48.764;9.176;2022-11-14T06:43:31;24.00;23.00;12.50
26185;PMS7003;20067;48.764;9.176;2022-11-14T06:46:02;34.75;28.75;16.50
26185;PMS7003;20067;48.764;9.176;2022-11-14T06:48:29;29.00;25.00;15.50
26185;PMS7003;20067;48.764;9.176;2022-11-14T06:50:56;21.25;21.25;13.00
26185;PMS7003;20067;48.764;9.176;2022-11-14T06:53:23;27.50;24.00;14.50
26185;PMS7003;20067;48.764;9.176;2022-11-14T06:55:55;28.50;25.50;16.00
26185;PMS7003;20067;48.764;9.176;2022-11-14T06:58:29;26.75;25.75;14.00
26185;PMS7003;20067;48.764;9.176;2022-11-14T07:01:11;30.50;30.50;21.50
26185;PMS7003;20067;48.764;9.176;2022-11-14T07:03:37;26.75;22.00;14.00
26185;PMS7003;20067;48.764;9.176;2022-11-14T07:06:03;28.75;24.25;14.75
26185;PMS7003;20067;48.764;9.176;2022-11-14T07:08:30;28.50;28.25;17.75
26185;PMS7003;20067;48.764;9.176;2022-11-14T07:13:31;28.00;26.75;16.50
26185;PMS7003;20067;48.764;9.176;2022-11-14T07:15:58;25.00;23.50;15.00
26185;PMS7003;20067;48.764;9.176;2022-11-14T07:18:23;30.00;26.75;16.00
26185;PMS7003;20067;48.764;9.176;2022-11-14T07:20:50;25.00;22.25;14.00
26185;PMS7003;20067;48.764;9.176;2022-11-14T07:23:24;23.50;21.50;12.00
26185;PMS7003;20067;48.764;9.176;2022-11-14T07:25:50;29.50;29.50;18.00
26185;PMS7003;20067;48.764;9.176;2022-11-14T07:28:15;21.50;21.50;14.00
26185;PMS7003;20067;48.764;9.176;2022-11-14T07:30:41;26.50;25.50;14.75
26185;PMS7003;20067;48.764;9.176;2022-11-14T07:33:06;28.00;21.25;14.50
26185;PMS7003;20067;48.764;9.176;2022-11-14T07:35:32;22.00;21.25;13.75
26185;PMS7003;20067;48.764;9.176;2022-11-14T07:38:01;24.50;21.50;12.75
26185;PMS7003;20067;48.764;9.176;2022-11-14T07:40:28;25.00;23.00;15.00
26185;PMS7003;20067;48.764;9.176;2022-11-14T07:42:59;24.50;22.00;14.50
26185;PMS7003;20067;48.764;9.176;2022-11-14T07:45:26;18.50;17.50;12.00
26185;PMS7003;20067;48.764;9.176;2022-11-14T07:47:54;22.00;22.00;13.75
26185;PMS7003;20067;48.764;9.176;2022-11-14T07:50:21;24.75;24.75;16.50
26185;PMS7003;20067;48.764;9.176;2022-11-14T07:52:50;26.50;24.00;15.00
26185;PMS7003;20067;48.764;9.176;2022-11-14T07:55:16;28.25;25.00;16.00
26185;PMS7003;20067;48.764;9.176;2022-11-14T07:57:42;25.50;22.00;15.00
26185;PMS7003;20067;48.764;9.176;2022-11-14T08:00:08;22.50;21.50;15.00
26185;PMS7003;20067;48.764;9.176;2022-11-14T08:02:35;21.00;21.00;12.50
26185;PMS7003;20067;48.764;9.176;2022-11-14T08:05:00;22.75;21.00;12.25
26185;PMS7003;20067;48.764;9.176;2022-11-14T08:07:26;22.00;20.50;13.00
26185;PMS7003;20067;48.764;9.176;2022-11-14T08:09:52;23.00;21.50;11.75
26185;PMS7003;20067;48.764;9.176;2022-11-14T08:12:17;24.25;23.25;16.00
26185;PMS7003;20067;48.764;9.176;2022-11-14T08:14:43;30.25;27.25;18.00
26185;PMS7003;20067;48.764;9.176;2022-11-14T08:17:08;29.50;26.75;15.50
26185;PMS7003;20067;48.764;9.176;2022-11-14T08:19:34;20.75;20.75;14.25
26185;PMS7003;20067;48.764;9.176;2022-11-14T08:22:00;26.25;23.75;15.00
26185;PMS7003;20067;48.764;9.176;2022-11-14T08:24:25;23.25;22.00;13.50
26185;PMS7003;20067;48.764;9.176;2022-11-14T08:26:51;27.00;25.00;19.50
26185;PMS7003;20067;48.764;9.176;2022-11-14T08:29:16;33.50;27.00;20.00
26185;PMS7003;20067;48.764;9.176;2022-11-14T08:31:42;26.50;26.50;19.50
26185;PMS7003;20067;48.764;9.176;2022-11-14T08:34:09;30.25;30.25;22.00
26185;PMS7003;20067;48.764;9.176;2022-11-14T08:36:34;28.25;26.50;21.00
26185;PMS7003;20067;48.764;9.176;2022-11-14T08:39:00;30.00;27.75;22.25
26185;PMS7003;20067;48.764;9.176;2022-11-14T08:41:26;34.00;33.00;27.50
26185;PMS7003;20067;48.764;9.176;2022-11-14T08:43:51;34.50;32.50;28.00
26185;PMS7003;20067;48.764;9.176;2022-11-14T08:46:17;43.00;40.00;34.00
26185;PMS7003;20067;48.764;9.176;2022-11-14T08:48:42;49.33;46.67;36.33
26185;PMS7003;20067;48.764;9.176;2022-11-14T08:51:08;52.00;49.00;37.67
26185;PMS7003;20067;48.764;9.176;2022-11-14T08:53:33;41.67;38.33;32.33
26185;PMS7003;20067;48.764;9.176;2022-11-14T08:55:59;44.33;43.33;35.33
26185;PMS7003;20067;48.764;9.176;2022-11-14T08:58:28;46.67;44.33;35.67
26185;PMS7003;20067;48.764;9.176;2022-11-14T09:00:58;46.00;46.00;36.00
26185;PMS7003;20067;48.764;9.176;2022-11-14T09:03:25;41.50;41.50;33.50
26185;PMS7003;20067;48.764;9.176;2022-11-14T09:05:51;40.25;40.25;33.25
26185;PMS7003;20067;48.764;9.176;2022-11-14T09:08:17;43.25;39.75;32.75
26185;PMS7003;20067;48.764;9.176;2022-11-14T09:10:42;41.75;40.75;33.00
26185;PMS7003;20067;48.764;9.176;2022-11-14T09:13:09;45.00;43.33;36.67
26185;PMS7003;20067;48.764;9.176;2022-11-14T09:15:34;42.25;41.75;33.00
26185;PMS7003;20067;48.764;9.176;2022-11-14T09:18:00;42.00;42.00;35.00
26185;PMS7003;20067;48.764;9.176;2022-11-14T09:20:26;40.33;40.33;33.67
26185;PMS7003;20067;48.764;9.176;2022-11-14T09:22:54;43.00;42.33;36.00
26185;PMS7003;20067;48.764;9.176;2022-11-14T09:25:22;41.75;40.50;33.75
26185;PMS7003;20067;48.764;9.176;2022-11-14T09:27:48;41.00;41.00;32.75
26185;PMS7003;20067;48.764;9.176;2022-11-14T09:30:14;36.50;36.50;32.00
26185;PMS7003;20067;48.764;9.176;2022-11-14T09:32:39;35.50;34.00;29.00
26185;PMS7003;20067;48.764;9.176;2022-11-14T09:35:05;32.50;32.50;29.00
26185;PMS7003;20067;48.764;9.176;2022-11-14T09:37:31;31.00;31.00;27.00
26185;PMS7003;20067;48.764;9.176;2022-11-14T09:39:56;36.50;33.75;29.75
26185;PMS7003;20067;48.764;9.176;2022-11-14T09:47:21;32.00;30.00;25.00
26185;PMS7003;20067;48.764;9.176;2022-11-14T09:50:15;41.50;39.75;32.00
26185;PMS7003;20067;48.764;9.176;2022-11-14T09:52:44;36.75;34.00;29.00
26185;PMS7003;20067;48.764;9.176;2022-11-14T09:55:23;29.75;29.75;24.50
26185;PMS7003;20067;48.764;9.176;2022-11-14T09:57:53;35.25;35.25;30.50
26185;PMS7003;20067;48.764;9.176;2022-11-14T10:00:21;37.25;32.25;28.00
26185;PMS7003;20067;48.764;9.176;2022-11-14T10:03:10;34.75;34.75;28.50
26185;PMS7003;20067;48.764;9.176;2022-11-14T10:05:49;33.50;32.25;27.00
26185;PMS7003;20067;48.764;9.176;2022-11-14T10:34:51;15.00;14.50;11.50
26185;PMS7003;20067;48.764;9.176;2022-11-14T10:37:31;16.00;14.25;10.00
26185;PMS7003;20067;48.764;9.176;2022-11-14T10:40:15;16.50;16.50;11.50
26185;PMS7003;20067;48.764;9.176;2022-11-14T10:42:45;15.00;15.00;10.00
26185;PMS7003;20067;48.764;9.176;2022-11-14T10:48:07;18.50;17.25;12.25
26185;PMS7003;20067;48.764;9.176;2022-11-14T10:50:39;17.25;16.75;12.50
26185;PMS7003;20067;48.764;9.176;2022-11-14T10:53:17;15.50;15.50;12.00
26185;PMS7003;20067;48.764;9.176;2022-11-14T10:55:51;12.00;12.00;7.00
26185;PMS7003;20067;48.764;9.176;2022-11-14T10:58:19;18.75;17.00;11.00
26185;PMS7003;20067;48.764;9.176;2022-11-14T11:00:45;14.50;14.50;10.00
26185;PMS7003;20067;48.764;9.176;2022-11-14T11:03:11;20.25;18.00;12.00
26185;PMS7003;20067;48.764;9.176;2022-11-14T11:05:45;18.00;15.25;10.50
26185;PMS7003;20067;48.764;9.176;2022-11-14T11:08:19;16.25;15.75;9.25
26185;PMS7003;20067;48.764;9.176;2022-11-14T11:11:04;13.00;12.00;7.00
26185;PMS7003;20067;48.764;9.176;2022-11-14T11:13:54;10.00;10.00;5.50
26185;PMS7003;20067;48.764;9.176;2022-11-14T11:16:21;7.00;7.00;4.00
26185;PMS7003;20067;48.764;9.176;2022-11-14T11:18:49;10.00;9.50;6.00
26185;PMS7003;20067;48.764;9.176;2022-11-14T11:21:16;10.25;7.50;4.00
26185;PMS7003;20067;48.764;9.176;2022-11-14T11:23:48;9.75;8.00;4.00
26185;PMS7003;20067;48.764;9.176;2022-11-14T11:26:24;9.50;8.00;4.75
26185;PMS7003;20067;48.764;9.176;2022-11-14T11:34:21;13.50;13.50;7.50
26185;PMS7003;20067;48.764;9.176;2022-11-14T11:37:03;11.50;8.75;5.00
26185;PMS7003;20067;48.764;9.176;2022-11-14T11:39:38;10.50;10.00;5.00
26185;PMS7003;20067;48.764;9.176;2022-11-14T11:42:07;10.75;8.00;4.00
26185;PMS7003;20067;48.764;9.176;2022-11-14T11:44:38;8.50;8.50;4.25
26185;PMS7003;20067;48.764;9.176;2022-11-14T11:47:12;13.00;11.50;7.00
26185;PMS7003;20067;48.764;9.176;2022-11-14T11:49:48;10.00;10.00;7.00
26185;PMS7003;20067;48.764;9.176;2022-11-14T11:54:55;9.00;8.50;4.00
26185;PMS7003;20067;48.764;9.176;2022-11-14T11:57:30;12.50;12.00;7.00
26185;PMS7003;20067;48.764;9.176;2022-11-14T12:02:39;9.75;9.75;6.25
26185;PMS7003;20067;48.764;9.176;2022-11-14T12:05:10;10.00;8.75;4.50
26185;PMS7003;20067;48.764;9.176;2022-11-14T12:08:23;8.75;8.50;5.50
26185;PMS7003;20067;48.764;9.176;2022-11-14T12:10:45;9.00;9.00;4.00
26185;PMS7003;20067;48.764;9.176;2022-11-14T12:21:05;10.00;10.00;7.00
26185;PMS7003;20067;48.764;9.176;2022-11-14T12:26:53;9.75;9.75;6.00
26185;PMS7003;20067;48.764;9.176;2022-11-14T12:32:16;12.00;10.00;6.00
26185;PMS7003;20067;48.764;9.176;2022-11-14T12:34:50;9.00;9.00;5.50
26185;PMS7003;20067;48.764;9.176;2022-11-14T12:37:20;9.00;9.00;5.00
26185;PMS7003;20067;48.764;9.176;2022-11-14T12:39:57;8.50;8.50;4.25
26185;PMS7003;20067;48.764;9.176;2022-11-14T12:42:26;10.00;10.00;6.00
26185;PMS7003;20067;48.764;9.176;2022-11-14T12:44:52;7.00;7.00;3.00
26185;PMS7003;20067;48.764;9.176;2022-11-14T12:47:19;11.00;10.00;6.00
26185;PMS7003;20067;48.764;9.176;2022-11-14T12:58:25;7.25;7.25;2.25
26185;PMS7003;20067;48.764;9.176;2022-11-14T13:08:54;7.00;7.00;2.50
26185;PMS7003;20067;48.764;9.176;2022-11-14T13:14:24;8.00;7.00;2.00
26185;PMS7003;20067;48.764;9.176;2022-11-14T13:20:21;5.00;5.00;1.75
26185;PMS7003;20067;48.764;9.176;2022-11-14T13:33:44;7.50;7.50;3.00
26185;PMS7003;20067;48.764;9.176;2022-11-14T13:36:20;8.50;7.75;2.00
26185;PMS7003;20067;48.764;9.176;2022-11-14T13:41:51;10.75;8.00;4.00
26185;PMS7003;20067;48.764;9.176;2022-11-14T13:47:27;8.00;8.00;2.50
26185;PMS7003;20067;48.764;9.176;2022-11-14T13:50:16;7.00;7.00;3.50
26185;PMS7003;20067;48.764;9.176;2022-11-14T13:52:48;8.25;5.50;2.00
26185;PMS7003;20067;48.764;9.176;2022-11-14T13:55:22;10.75;7.75;2.00
26185;PMS7003;20067;48.764;9.176;2022-11-14T14:03:38;8.25;7.00;2.00
26185;PMS7003;20067;48.764;9.176;2022-11-14T14:06:29;7.00;7.00;3.50
26185;PMS7003;20067;48.764;9.176;2022-11-14T14:11:45;7.00;7.00;2.00
26185;PMS7003;20067;48.764;9.176;2022-11-14T14:25:25;7.00;7.00;2.00
26185;PMS7003;20067;48.764;9.176;2022-11-14T14:28:19;7.75;7.00;2.00
26185;PMS7003;20067;48.764;9.176;2022-11-14T14:33:38;7.00;7.00;3.50
26185;PMS7003;20067;48.764;9.176;2022-11-14T14:36:41;8.50;7.00;2.00
26185;PMS7003;20067;48.764;9.176;2022-11-14T14:39:16;7.75;7.75;3.50
26185;PMS7003;20067;48.764;9.176;2022-11-14T14:41:45;8.00;7.50;4.00
26185;PMS7003;20067;48.764;9.176;2022-11-14T14:46:47;7.00;5.50;1.50
26185;PMS7003;20067;48.764;9.176;2022-11-14T14:49:16;7.75;5.50;1.75
26185;PMS7003;20067;48.764;9.176;2022-11-14T14:51:54;8.00;7.00;2.00
26185;PMS7003;20067;48.764;9.176;2022-11-14T14:54:24;10.75;8.00;4.00
26185;PMS7003;20067;48.764;9.176;2022-11-14T14:56:56;5.50;5.50;2.00
26185;PMS7003;20067;48.764;9.176;2022-11-14T14:59:27;7.50;7.00;2.00
26185;PMS7003;20067;48.764;9.176;2022-11-14T15:01:55;6.00;6.00;2.00
26185;PMS7003;20067;48.764;9.176;2022-11-14T15:04:27;7.75;7.75;2.00
26185;PMS7003;20067;48.764;9.176;2022-11-14T15:06:54;11.00;7.50;2.00
26185;PMS7003;20067;48.764;9.176;2022-11-14T15:09:22;8.00;7.00;2.00
26185;PMS7003;20067;48.764;9.176;2022-11-14T15:11:54;8.50;7.50;2.00
26185;PMS7003;20067;48.764;9.176;2022-11-14T15:14:23;8.00;8.00;4.00
26185;PMS7003;20067;48.764;9.176;2022-11-14T15:16:51;10.50;8.00;5.00
26185;PMS7003;20067;48.764;9.176;2022-11-14T15:19:20;8.00;7.50;4.00
26185;PMS7003;20067;48.764;9.176;2022-11-14T15:22:23;10.75;7.25;4.00
26185;PMS7003;20067;48.764;9.176;2022-11-14T15:24:41;9.25;8.00;4.00
26185;PMS7003;20067;48.764;9.176;2022-11-14T15:27:15;7.00;7.00;3.50
26185;PMS7003;20067;48.764;9.176;2022-11-14T15:32:19;9.50;9.50;5.00
26185;PMS7003;20067;48.764;9.176;2022-11-14T15:35:06;7.50;7.00;2.00
26185;PMS7003;20067;48.764;9.176;2022-11-14T15:37:32;7.25;7.25;4.00
26185;PMS7003;20067;48.764;9.176;2022-11-14T15:40:13;10.50;10.00;4.75
26185;PMS7003;20067;48.764;9.176;2022-11-14T15:42:43;9.50;9.00;4.00
26185;PMS7003;20067;48.764;9.176;2022-11-14T15:45:22;8.75;7.00;2.50
26185;PMS7003;20067;48.764;9.176;2022-11-14T15:47:55;7.25;7.25;3.75
26185;PMS7003;20067;48.764;9.176;2022-11-14T15:50:32;11.50;8.00;4.00
26185;PMS7003;20067;48.764;9.176;2022-11-14T15:55:50;7.50;7.50;3.50
26185;PMS7003;20067;48.764;9.176;2022-11-14T15:58:16;7.25;7.00;4.00
26185;PMS7003;20067;48.764;9.176;2022-11-14T16:00:43;12.75;9.00;3.25
26185;PMS7003;20067;48.764;9.176;2022-11-14T16:03:19;8.75;8.25;4.00
26185;PMS7003;20067;48.764;9.176;2022-11-14T16:05:46;7.00;7.00;2.00
26185;PMS7003;20067;48.764;9.176;2022-11-14T16:08:15;10.00;8.50;4.50
26185;PMS7003;20067;48.764;9.176;2022-11-14T16:10:40;9.00;8.25;4.00
26185;PMS7003;20067;48.764;9.176;2022-11-14T16:13:06;10.00;10.00;4.00
26185;PMS7003;20067;48.764;9.176;2022-11-14T16:15:31;10.00;7.75;3.75
26185;PMS7003;20067;48.764;9.176;2022-11-14T16:17:57;9.00;9.00;4.00